createdAt,value
2018-11-07T00:01:37.808Z,99506.75
2018-11-07T00:04:08.492Z,99513.20
2018-11-07T00:06:39.130Z,99508.27
2018-11-07T00:09:10.173Z,99515.84
2018-11-07T00:11:40.776Z,99521.69
2018-11-07T00:14:11.416Z,99518.96
2018-11-07T00:16:42.096Z,99517.05
2018-11-07T00:19:12.727Z,99514.84
2018-11-07T00:21:43.432Z,99514.45
2018-11-07T00:24:14.685Z,99508.85
2018-11-07T00:26:45.436Z,99507.06
2018-11-07T00:29:16.114Z,99510.83
2018-11-07T00:31:46.731Z,99516.89
2018-11-07T00:34:17.373Z,99519.34
2018-11-07T00:36:48.007Z,99513.56
2018-11-07T00:39:18.653Z,99516.73
2018-11-07T00:41:49.290Z,99520.28
2018-11-07T00:44:19.900Z,99528.98
2018-11-07T00:46:50.630Z,99527.17
2018-11-07T00:49:21.262Z,99522.19
2018-11-07T00:51:51.972Z,99527.36
2018-11-07T00:54:22.655Z,99538.60
2018-11-07T00:56:53.324Z,99535.10
2018-11-07T00:59:23.999Z,99539.70
2018-11-07T01:01:54.673Z,99537.16
2018-11-07T01:04:25.305Z,99532.45
2018-11-07T01:06:56.289Z,99531.02
2018-11-07T01:09:26.905Z,99531.44
2018-11-07T01:11:57.543Z,99529.66
2018-11-07T01:14:28.210Z,99540.09
2018-11-07T01:16:58.878Z,99522.47
2018-11-07T01:19:29.484Z,99526.91
2018-11-07T01:22:00.175Z,99522.94
2018-11-07T01:24:30.795Z,99519.75
2018-11-07T01:27:01.481Z,99527.64
2018-11-07T01:29:32.144Z,99514.26
2018-11-07T01:32:02.850Z,99518.38
2018-11-07T01:34:33.508Z,99524.72
2018-11-07T01:37:04.244Z,99516.13
2018-11-07T01:39:34.954Z,99508.19
2018-11-07T01:42:05.985Z,99518.73
2018-11-07T01:44:36.632Z,99519.44
2018-11-07T01:47:07.317Z,99522.78
2018-11-07T01:49:38.012Z,99524.84
2018-11-07T01:52:08.762Z,99528.18
2018-11-07T01:54:39.375Z,99526.36
2018-11-07T01:57:10.063Z,99518.27
2018-11-07T01:59:40.701Z,99513.48
2018-11-07T02:02:11.415Z,99503.72
2018-11-07T02:04:42.041Z,99502.20
2018-11-07T02:07:12.733Z,99506.20
2018-11-07T02:09:43.435Z,99506.33
2018-11-07T02:12:14.095Z,99518.34
2018-11-07T02:14:44.720Z,99508.38
2018-11-07T02:17:15.380Z,99519.81
2018-11-07T02:19:46.110Z,99522.77
2018-11-07T02:22:16.755Z,99523.23
2018-11-07T02:24:47.419Z,99521.36
2018-11-07T02:27:18.051Z,99514.59
2018-11-07T02:29:48.701Z,99517.12
2018-11-07T02:32:19.376Z,99523.54
2018-11-07T02:34:50.063Z,99525.44
2018-11-07T02:37:20.691Z,99528.11
2018-11-07T02:39:51.355Z,99524.56
2018-11-07T02:42:21.996Z,99524.75
2018-11-07T02:44:52.611Z,99525.93
2018-11-07T02:47:23.246Z,99528.80
2018-11-07T02:49:53.961Z,99523.01
2018-11-07T02:52:24.606Z,99529.84
2018-11-07T02:54:55.284Z,99528.59
2018-11-07T02:57:25.931Z,99531.62
2018-11-07T02:59:56.605Z,99527.95
2018-11-07T03:02:27.312Z,99536.07
2018-11-07T03:04:58.040Z,99531.56
2018-11-07T03:07:28.728Z,99529.58
2018-11-07T03:09:59.363Z,99546.09
2018-11-07T03:12:30.041Z,99544.00
2018-11-07T03:15:00.723Z,99544.96
2018-11-07T03:17:31.377Z,99537.61
2018-11-07T03:20:02.052Z,99541.36
2018-11-07T03:22:32.650Z,99541.11
2018-11-07T03:25:03.335Z,99539.84
2018-11-07T03:27:33.946Z,99549.84
2018-11-07T03:30:05.404Z,99548.45
2018-11-07T03:32:36.059Z,99539.94
2018-11-07T03:35:11.560Z,99543.53
2018-11-07T03:37:42.257Z,99545.59
2018-11-07T03:40:12.991Z,99549.98
2018-11-07T03:42:43.731Z,99538.83
2018-11-07T03:45:14.404Z,99532.56
2018-11-07T03:47:45.008Z,99540.03
2018-11-07T03:50:15.632Z,99541.77
2018-11-07T03:52:46.311Z,99533.52
2018-11-07T03:55:16.937Z,99517.39
2018-11-07T03:57:47.540Z,99521.09
2018-11-07T04:00:18.201Z,99528.44
2018-11-07T04:02:48.809Z,99525.55
2018-11-07T04:05:19.551Z,99512.99
2018-11-07T04:07:50.158Z,99515.65
2018-11-07T04:10:20.796Z,99522.64
2018-11-07T04:12:51.535Z,99513.13
2018-11-07T04:15:22.218Z,99511.81
2018-11-07T04:17:52.871Z,99519.39
2018-11-07T04:20:23.460Z,99519.67
2018-11-07T04:22:54.101Z,99507.98
2018-11-07T04:25:24.769Z,99514.23
2018-11-07T04:27:55.434Z,99508.20
2018-11-07T04:30:26.114Z,99502.45
2018-11-07T04:32:56.720Z,99503.09
2018-11-07T04:35:27.371Z,99509.80
2018-11-07T04:37:58.037Z,99510.73
2018-11-07T04:40:28.620Z,99511.59
2018-11-07T04:42:59.271Z,99505.66
2018-11-07T04:45:29.909Z,99522.15
2018-11-07T04:48:00.549Z,99513.20
2018-11-07T04:50:31.163Z,99515.38
2018-11-07T04:53:01.784Z,99496.78
2018-11-07T04:55:32.448Z,99493.50
2018-11-07T04:58:03.124Z,99500.67
2018-11-07T05:00:33.770Z,99502.17
2018-11-07T05:03:04.455Z,99495.19
2018-11-07T05:05:35.088Z,99497.93
2018-11-07T05:08:05.787Z,99500.50
2018-11-07T05:10:36.443Z,99500.28
2018-11-07T05:13:07.116Z,99496.43
2018-11-07T05:15:37.794Z,99493.76
2018-11-07T05:18:08.468Z,99508.70
2018-11-07T05:20:39.064Z,99504.05
2018-11-07T05:23:09.724Z,99501.60
2018-11-07T05:25:40.376Z,99502.52
2018-11-07T05:28:11.120Z,99502.81
2018-11-07T05:30:41.738Z,99510.72
2018-11-07T05:33:12.388Z,99516.84
2018-11-07T05:35:43.028Z,99520.44
2018-11-07T05:38:13.696Z,99520.63
2018-11-07T05:40:44.302Z,99516.20
2018-11-07T05:43:14.970Z,99523.70
2018-11-07T05:45:45.655Z,99528.81
2018-11-07T05:48:16.287Z,99537.39
2018-11-07T05:50:46.945Z,99538.88
2018-11-07T05:53:17.642Z,99535.48
2018-11-07T05:55:48.380Z,99526.83
2018-11-07T05:58:19.015Z,99528.50
2018-11-07T06:00:49.696Z,99524.66
2018-11-07T06:03:20.413Z,99530.41
2018-11-07T06:05:51.073Z,99527.59
2018-11-07T06:08:21.735Z,99525.70
2018-11-07T06:10:52.388Z,99537.94
2018-11-07T06:13:23.017Z,99533.80
2018-11-07T06:15:53.673Z,99537.28
2018-11-07T06:18:24.359Z,99536.36
2018-11-07T06:20:55.000Z,99539.53
2018-11-07T06:23:25.627Z,99527.13
2018-11-07T06:25:56.571Z,99530.42
2018-11-07T06:28:27.209Z,99532.66
2018-11-07T06:30:58.113Z,99539.82
2018-11-07T06:33:28.767Z,99547.27
2018-11-07T06:35:59.430Z,99540.67
2018-11-07T06:38:30.067Z,99541.14
2018-11-07T06:41:00.703Z,99532.19
2018-11-07T06:43:31.348Z,99521.06
2018-11-07T06:46:02.116Z,99525.52
2018-11-07T06:48:32.830Z,99520.52
2018-11-07T06:51:03.538Z,99530.52
2018-11-07T06:53:34.195Z,99535.33
2018-11-07T06:56:04.826Z,99536.70
2018-11-07T06:58:35.460Z,99547.23
2018-11-07T07:01:06.178Z,99541.38
2018-11-07T07:03:36.782Z,99540.01
2018-11-07T07:06:07.628Z,99542.73
2018-11-07T07:08:38.430Z,99544.34
2018-11-07T07:11:09.227Z,99544.66
2018-11-07T07:13:40.012Z,99548.33
2018-11-07T07:16:10.667Z,99553.27
2018-11-07T07:18:41.328Z,99553.78
2018-11-07T07:21:11.959Z,99554.38
2018-11-07T07:23:42.692Z,99558.96
2018-11-07T07:26:13.387Z,99561.56
2018-11-07T07:28:44.076Z,99549.95
2018-11-07T07:31:14.763Z,99555.50
2018-11-07T07:33:45.524Z,99557.36
2018-11-07T07:36:16.129Z,99562.38
2018-11-07T07:38:46.824Z,99557.67
2018-11-07T07:41:17.553Z,99547.67
2018-11-07T07:43:48.205Z,99547.88
2018-11-07T07:46:18.941Z,99545.41
2018-11-07T07:48:49.622Z,99555.11
2018-11-07T07:51:20.323Z,99555.88
2018-11-07T07:53:51.067Z,99557.31
2018-11-07T07:56:21.768Z,99557.70
2018-11-07T07:58:52.424Z,99558.90
2018-11-07T08:01:23.108Z,99563.70
2018-11-07T08:03:53.788Z,99571.58
2018-11-07T08:06:24.421Z,99564.14
2018-11-07T08:08:55.085Z,99563.91
2018-11-07T08:11:25.726Z,99571.45
2018-11-07T08:13:56.457Z,99567.56
2018-11-07T08:16:27.102Z,99566.59
2018-11-07T08:18:57.733Z,99562.44
2018-11-07T08:21:28.357Z,99561.32
2018-11-07T08:23:59.020Z,99566.78
2018-11-07T08:26:29.769Z,99575.91
2018-11-07T08:29:00.716Z,99580.89
2018-11-07T08:31:31.660Z,99581.28
2018-11-07T08:34:02.324Z,99565.15
2018-11-07T08:36:33.003Z,99575.39
2018-11-07T08:39:04.358Z,99570.20
2018-11-07T08:41:34.979Z,99575.12
2018-11-07T08:44:05.908Z,99570.30
2018-11-07T08:46:36.608Z,99563.77
2018-11-07T08:49:08.122Z,99565.17
2018-11-07T08:51:38.782Z,99562.28
2018-11-07T08:54:09.481Z,99563.88
2018-11-07T08:56:40.245Z,99555.61
2018-11-07T08:59:10.912Z,99568.86
2018-11-07T09:01:41.562Z,99566.70
2018-11-07T09:04:12.392Z,99567.81
2018-11-07T09:06:43.076Z,99545.03
2018-11-07T09:09:13.738Z,99557.19
2018-11-07T09:11:44.423Z,99556.44
2018-11-07T09:14:15.052Z,99550.36
2018-11-07T09:16:45.727Z,99550.33
2018-11-07T09:19:16.355Z,99555.57
2018-11-07T09:21:47.020Z,99554.35
2018-11-07T09:24:17.792Z,99548.27
2018-11-07T09:26:48.526Z,99559.83
2018-11-07T09:29:19.231Z,99562.88
2018-11-07T09:31:49.844Z,99559.71
2018-11-07T09:34:20.558Z,99558.45
2018-11-07T09:36:51.221Z,99564.47
2018-11-07T09:39:21.974Z,99578.16
2018-11-07T09:41:52.694Z,99581.06
2018-11-07T09:44:23.469Z,99573.22
2018-11-07T09:46:54.124Z,99562.98
2018-11-07T09:49:24.818Z,99568.11
2018-11-07T09:51:55.535Z,99572.27
2018-11-07T09:54:26.252Z,99583.95
2018-11-07T09:56:56.914Z,99572.18
2018-11-07T09:59:27.586Z,99570.30
2018-11-07T10:01:58.288Z,99577.28
2018-11-07T10:04:28.935Z,99570.23
2018-11-07T10:06:59.688Z,99575.08
2018-11-07T10:09:30.431Z,99567.77
2018-11-07T10:12:01.109Z,99574.37
2018-11-07T10:14:31.861Z,99576.41
2018-11-07T10:17:02.571Z,99557.94
2018-11-07T10:20:36.405Z,99564.11
2018-11-07T10:23:07.149Z,99554.14
2018-11-07T10:25:37.870Z,99562.98
2018-11-07T10:28:09.021Z,99558.37
2018-11-07T10:30:39.339Z,99575.52
2018-11-07T10:33:10.008Z,99558.66
2018-11-07T10:35:40.649Z,99559.61
2018-11-07T10:38:11.425Z,99556.34
2018-11-07T10:40:42.149Z,99559.54
2018-11-07T10:43:12.847Z,99550.91
2018-11-07T10:45:43.496Z,99546.80
2018-11-07T10:48:14.218Z,99554.53
2018-11-07T10:50:44.913Z,99545.92
2018-11-07T10:53:15.582Z,99548.02
2018-11-07T10:55:46.261Z,99551.84
2018-11-07T10:58:17.050Z,99556.20
2018-11-07T11:00:52.978Z,99548.72
2018-11-07T11:03:28.932Z,99548.06
2018-11-07T11:05:59.846Z,99555.48
2018-11-07T11:08:30.509Z,99547.15
2018-11-07T11:11:01.351Z,99539.17
2018-11-07T11:13:32.015Z,99538.23
2018-11-07T11:16:02.680Z,99543.11
2018-11-07T11:18:33.338Z,99528.69
2018-11-07T11:21:04.038Z,99548.96
2018-11-07T11:23:34.743Z,99551.80
2018-11-07T11:26:05.550Z,99538.48
2018-11-07T11:28:36.304Z,99537.85
2018-11-07T11:31:07.038Z,99551.69
2018-11-07T11:33:37.756Z,99552.84
2018-11-07T11:36:14.427Z,99545.19
2018-11-07T11:38:45.077Z,99544.73
2018-11-07T11:41:15.902Z,99548.34
2018-11-07T11:43:46.532Z,99551.64
2018-11-07T11:46:17.211Z,99548.83
2018-11-07T11:48:47.914Z,99546.14
2018-11-07T11:51:18.554Z,99551.32
2018-11-07T11:53:49.253Z,99541.98
2018-11-07T11:56:19.917Z,99546.78
2018-11-07T11:58:50.651Z,99539.64
2018-11-07T12:01:21.264Z,99546.53
2018-11-07T12:03:51.935Z,99539.95
2018-11-07T12:06:22.665Z,99537.50
2018-11-07T12:08:53.368Z,99534.19
2018-11-07T12:11:24.149Z,99531.72
2018-11-07T12:13:54.788Z,99532.14
2018-11-07T12:16:25.465Z,99532.72
2018-11-07T12:18:56.077Z,99525.34
2018-11-07T12:21:26.815Z,99531.81
2018-11-07T12:23:57.404Z,99540.77
2018-11-07T12:26:28.083Z,99534.45
2018-11-07T12:28:58.864Z,99541.28
2018-11-07T12:31:29.520Z,99532.36
2018-11-07T12:34:00.141Z,99536.80
2018-11-07T12:36:31.004Z,99540.56
2018-11-07T12:39:01.723Z,99543.69
2018-11-07T12:41:32.517Z,99537.80
2018-11-07T12:44:03.328Z,99541.39
2018-11-07T12:46:34.084Z,99545.84
2018-11-07T12:49:04.882Z,99539.05
2018-11-07T12:51:35.656Z,99530.41
2018-11-07T12:54:06.501Z,99523.22
2018-11-07T12:56:37.258Z,99527.52
2018-11-07T12:59:08.161Z,99528.01
2018-11-07T13:01:38.848Z,99525.19
2018-11-07T13:04:09.568Z,99530.50
2018-11-07T13:06:40.252Z,99527.35
2018-11-07T13:09:12.432Z,99520.98
2018-11-07T13:11:43.310Z,99516.72
2018-11-07T13:14:14.039Z,99519.98
2018-11-07T13:16:44.783Z,99532.16
2018-11-07T13:19:15.390Z,99536.66
2018-11-07T13:21:46.103Z,99533.69
2018-11-07T13:24:16.752Z,99546.34
2018-11-07T13:26:47.460Z,99543.10
2018-11-07T13:29:18.174Z,99545.06
2018-11-07T13:31:48.967Z,99548.38
2018-11-07T13:34:19.751Z,99543.61
2018-11-07T13:36:50.589Z,99540.78
2018-11-07T13:39:21.529Z,99547.95
2018-11-07T13:41:51.877Z,99550.00
2018-11-07T13:44:22.597Z,99539.39
2018-11-07T13:46:53.231Z,99549.00
2018-11-07T13:49:23.904Z,99551.05
2018-11-07T13:51:54.629Z,99553.72
2018-11-07T13:54:25.357Z,99562.73
2018-11-07T13:56:56.154Z,99563.83
2018-11-07T13:59:26.910Z,99573.30
2018-11-07T14:01:57.654Z,99562.06
2018-11-07T14:04:28.429Z,99579.77
2018-11-07T14:06:59.475Z,99583.37
2018-11-07T14:09:30.122Z,99589.09
2018-11-07T14:12:00.844Z,99596.98
2018-11-07T14:14:31.513Z,99599.50
2018-11-07T14:17:02.340Z,99603.98
2018-11-07T14:19:33.654Z,99609.02
2018-11-07T14:22:04.372Z,99607.04
2018-11-07T14:24:35.171Z,99609.13
2018-11-07T14:27:05.983Z,99622.14
2018-11-07T14:29:36.871Z,99626.48
2018-11-07T14:32:07.728Z,99614.55
2018-11-07T14:34:38.910Z,99621.59
2018-11-07T14:37:09.543Z,99621.44
2018-11-07T14:39:40.286Z,99619.39
2018-11-07T14:42:11.100Z,99629.66
2018-11-07T14:44:41.819Z,99627.27
2018-11-07T14:47:12.578Z,99637.23
2018-11-07T14:49:43.178Z,99640.00
2018-11-07T14:52:13.958Z,99641.59
2018-11-07T14:54:44.644Z,99641.70
2018-11-07T14:57:15.351Z,99639.67
2018-11-07T14:59:46.052Z,99643.08
2018-11-07T15:02:16.788Z,99643.82
2018-11-07T15:04:47.542Z,99646.61
2018-11-07T15:07:18.251Z,99650.23
2018-11-07T15:09:48.911Z,99648.41
2018-11-07T15:12:19.573Z,99656.16
2018-11-07T15:14:50.212Z,99654.42
2018-11-07T15:17:20.874Z,99646.58
2018-11-07T15:19:51.563Z,99654.92
2018-11-07T15:22:22.526Z,99653.45
2018-11-07T15:24:53.213Z,99656.23
2018-11-07T15:27:23.852Z,99653.72
2018-11-07T15:29:54.470Z,99656.84
2018-11-07T15:32:25.152Z,99657.33
2018-11-07T15:34:55.793Z,99655.75
2018-11-07T15:37:26.540Z,99663.36
2018-11-07T15:39:57.232Z,99657.80
2018-11-07T15:42:28.474Z,99656.13
2018-11-07T15:44:59.202Z,99665.53
2018-11-07T15:47:29.919Z,99663.70
2018-11-07T15:51:07.316Z,99673.38
2018-11-07T15:53:38.127Z,99664.54
2018-11-07T15:56:09.174Z,99672.73
2018-11-07T15:58:39.849Z,99672.64
2018-11-07T16:01:10.544Z,99677.67
2018-11-07T16:03:46.419Z,99680.01
2018-11-07T16:06:18.503Z,99683.49
2018-11-07T16:08:49.086Z,99686.88
2018-11-07T16:11:19.696Z,99690.83
2018-11-07T16:13:50.475Z,99692.16
2018-11-07T16:16:21.065Z,99700.51
2018-11-07T16:18:51.819Z,99703.03
2018-11-07T16:21:22.560Z,99707.11
2018-11-07T16:23:53.500Z,99706.98
2018-11-07T16:26:24.257Z,99719.58
2018-11-07T16:28:54.998Z,99715.26
2018-11-07T16:31:25.601Z,99715.73
2018-11-07T16:33:56.277Z,99726.25
2018-11-07T16:36:26.875Z,99730.31
2018-11-07T16:38:57.479Z,99722.34
2018-11-07T16:41:28.319Z,99735.03
2018-11-07T16:43:58.784Z,99736.08
2018-11-07T16:46:29.450Z,99737.35
2018-11-07T16:49:00.138Z,99740.25
2018-11-07T16:51:30.771Z,99743.29
2018-11-07T16:54:01.492Z,99740.81
2018-11-07T16:56:32.154Z,99742.47
2018-11-07T16:59:02.957Z,99745.11
2018-11-07T17:01:33.539Z,99739.89
2018-11-07T17:04:04.223Z,99738.57
2018-11-07T17:06:34.876Z,99744.46
2018-11-07T17:09:07.643Z,99740.73
2018-11-07T17:11:38.730Z,99749.70
2018-11-07T17:14:10.257Z,99751.66
2018-11-07T17:16:40.852Z,99756.95
2018-11-07T17:19:11.537Z,99750.25
2018-11-07T17:21:42.151Z,99761.25
2018-11-07T17:24:13.003Z,99762.81
2018-11-07T17:26:43.648Z,99767.38
2018-11-07T17:29:14.252Z,99768.54
2018-11-07T17:31:44.967Z,99765.23
2018-11-07T17:34:15.706Z,99770.53
2018-11-07T17:36:46.393Z,99771.62
2018-11-07T17:39:17.028Z,99779.45
2018-11-07T17:41:47.804Z,99775.12
2018-11-07T17:44:18.541Z,99782.48
2018-11-07T17:46:49.172Z,99781.86
2018-11-07T17:49:19.847Z,99781.70
2018-11-07T17:51:50.826Z,99775.12
2018-11-07T17:54:21.465Z,99782.21
2018-11-07T17:56:52.142Z,99781.27
2018-11-07T17:59:22.866Z,99793.89
2018-11-07T18:01:53.546Z,99781.16
2018-11-07T18:04:24.179Z,99788.20
2018-11-07T18:06:54.846Z,99790.74
2018-11-07T18:09:25.469Z,99795.77
2018-11-07T18:11:57.801Z,99799.19
2018-11-07T18:14:28.500Z,99799.73
2018-11-07T18:16:59.134Z,99804.09
2018-11-07T18:19:29.841Z,99813.76
2018-11-07T18:22:00.501Z,99807.14
2018-11-07T18:24:31.147Z,99813.62
2018-11-07T18:27:01.950Z,99810.97
2018-11-07T18:29:32.681Z,99820.19
2018-11-07T18:32:03.427Z,99819.25
2018-11-07T18:34:36.236Z,99820.93
2018-11-07T18:37:07.835Z,99835.61
2018-11-07T18:39:38.953Z,99831.17
2018-11-07T18:42:09.708Z,99838.37
2018-11-07T18:44:40.380Z,99841.77
2018-11-07T18:47:11.169Z,99845.46
2018-11-07T18:49:42.075Z,99844.08
2018-11-07T18:52:12.725Z,99852.02
2018-11-07T18:54:43.376Z,99848.41
2018-11-07T18:57:14.040Z,99851.08
2018-11-07T18:59:44.664Z,99844.84
2018-11-07T19:02:15.322Z,99847.97
2018-11-07T19:04:45.984Z,99857.53
2018-11-07T19:07:16.625Z,99858.37
2018-11-07T19:09:48.277Z,99861.91
2018-11-07T19:12:18.965Z,99872.67
2018-11-07T19:14:49.626Z,99873.59
2018-11-07T19:17:20.375Z,99871.22
2018-11-07T19:19:51.141Z,99879.91
2018-11-07T19:22:21.755Z,99875.70
2018-11-07T19:24:52.524Z,99876.91
2018-11-07T19:27:23.303Z,99885.20
2018-11-07T19:29:53.846Z,99887.28
2018-11-07T19:32:24.504Z,99887.39
2018-11-07T19:34:55.172Z,99886.45
2018-11-07T19:37:25.787Z,99880.88
2018-11-07T19:39:56.486Z,99890.15
2018-11-07T19:42:27.301Z,99893.63
2018-11-07T19:44:57.930Z,99886.83
2018-11-07T19:47:28.643Z,99907.44
2018-11-07T19:49:59.294Z,99901.73
2018-11-07T19:52:30.039Z,99907.08
2018-11-07T19:55:00.741Z,99907.08
2018-11-07T19:57:31.399Z,99909.16
2018-11-07T20:00:02.148Z,99919.30
2018-11-07T20:02:33.607Z,99913.79
2018-11-07T20:05:04.416Z,99922.59
2018-11-07T20:07:35.313Z,99932.18
2018-11-07T20:10:08.492Z,99930.41
2018-11-07T20:12:39.332Z,99935.45
2018-11-07T20:15:11.915Z,99943.58
2018-11-07T20:17:42.639Z,99943.87
2018-11-07T20:20:13.699Z,99948.77
2018-11-07T20:22:44.471Z,99956.23
2018-11-07T20:25:15.707Z,99961.44
2018-11-07T20:27:46.466Z,99962.30
2018-11-07T20:30:18.748Z,99963.63
2018-11-07T20:32:49.447Z,99964.02
2018-11-07T20:35:21.078Z,99969.03
2018-11-07T20:37:51.743Z,99971.22
2018-11-07T20:40:23.100Z,99971.00
2018-11-07T20:42:53.845Z,99973.47
2018-11-07T20:45:24.551Z,99976.23
2018-11-07T20:47:55.277Z,99971.97
2018-11-07T20:50:25.923Z,99977.45
2018-11-07T20:52:56.572Z,99990.80
2018-11-07T20:55:27.255Z,99985.61
2018-11-07T20:57:58.012Z,99995.34
2018-11-07T21:00:28.725Z,99997.70
2018-11-07T21:02:59.390Z,99991.38
2018-11-07T21:05:30.126Z,99999.59
2018-11-07T21:08:00.766Z,99996.73
2018-11-07T21:10:31.429Z,100003.11
2018-11-07T21:13:02.050Z,100004.22
2018-11-07T21:15:32.777Z,100007.62
2018-11-07T21:18:03.418Z,100007.44
2018-11-07T21:20:34.125Z,100008.11
2018-11-07T21:23:04.897Z,100002.35
2018-11-07T21:25:35.570Z,99999.20
2018-11-07T21:28:06.208Z,100016.13
2018-11-07T21:30:36.943Z,100020.60
2018-11-07T21:33:07.603Z,100012.38
2018-11-07T21:35:38.366Z,100013.48
2018-11-07T21:38:09.047Z,100022.39
2018-11-07T21:40:39.701Z,100020.03
2018-11-07T21:43:10.329Z,100021.17
2018-11-07T21:45:40.997Z,100020.49
2018-11-07T21:48:11.699Z,100025.32
2018-11-07T21:50:42.319Z,100024.74
2018-11-07T21:53:12.957Z,100034.19
2018-11-07T21:55:43.608Z,100034.59
2018-11-07T21:58:14.341Z,100033.73
2018-11-07T22:00:44.944Z,100029.67
2018-11-07T22:03:15.643Z,100029.50
2018-11-07T22:05:46.364Z,100041.30
2018-11-07T22:08:16.999Z,100052.75
2018-11-07T22:10:47.682Z,100054.64
2018-11-07T22:13:18.466Z,100067.96
2018-11-07T22:15:49.035Z,100071.63
2018-11-07T22:18:19.766Z,100061.90
2018-11-07T22:20:50.408Z,100067.48
2018-11-07T22:23:21.087Z,100068.80
2018-11-07T22:25:51.740Z,100069.09
2018-11-07T22:28:22.488Z,100066.81
2018-11-07T22:30:53.130Z,100063.62
2018-11-07T22:33:23.767Z,100077.13
2018-11-07T22:35:54.424Z,100067.02
2018-11-07T22:38:25.031Z,100074.96
2018-11-07T22:40:55.669Z,100069.19
2018-11-07T22:43:26.322Z,100076.92
2018-11-07T22:45:57.023Z,100085.07
2018-11-07T22:48:27.644Z,100083.83
2018-11-07T22:50:58.313Z,100081.86
2018-11-07T22:53:29.026Z,100103.88
2018-11-07T22:55:59.907Z,100100.16
2018-11-07T22:58:30.613Z,100102.23
2018-11-07T23:01:06.536Z,100106.52
2018-11-07T23:03:37.295Z,100109.44
2018-11-07T23:06:07.989Z,100106.41
2018-11-07T23:08:38.674Z,100108.28
2018-11-07T23:11:09.433Z,100118.70
2018-11-07T23:13:40.058Z,100119.41
2018-11-07T23:16:10.703Z,100127.84
2018-11-07T23:18:41.535Z,100116.27
2018-11-07T23:21:12.309Z,100124.13
2018-11-07T23:23:42.904Z,100122.62
2018-11-07T23:26:13.558Z,100134.50
2018-11-07T23:28:44.172Z,100131.13
2018-11-07T23:31:14.839Z,100128.47
2018-11-07T23:33:45.485Z,100129.20
2018-11-07T23:36:16.130Z,100130.16
2018-11-07T23:38:46.850Z,100131.91
2018-11-07T23:41:17.505Z,100127.32
2018-11-07T23:43:48.376Z,100123.35
2018-11-07T23:46:19.168Z,100135.45
2018-11-07T23:48:49.826Z,100141.50
2018-11-07T23:51:20.455Z,100142.44
2018-11-07T23:53:51.112Z,100148.45
2018-11-07T23:56:21.802Z,100149.11
2018-11-07T23:58:52.511Z,100160.13
